Time;durP1;ratioP1;P1;durP2;ratioP2;P2;SDS_P1;SDS_P2;PMS_P1;PMS_P2;Temp;Humidity;BMP_temperature;BMP_pressure;BME280_temperature;BME280_humidity;BME280_pressure;Samples;Min_cycle;Max_cycle;Signal;HPM_P1;HPM_P2
2024/01/27 00:00:23;;;;;;;0.85;0.85;;;4.00;99.90;;;;;;4992809;28;20053;-78
2024/01/27 00:02:50;;;;;;;0.60;0.60;;;3.90;99.90;;;;;;5007724;28;20054;-78
2024/01/27 00:05:16;;;;;;;0.50;0.50;;;3.90;99.90;;;;;;4978294;28;20073;-79
2024/01/27 00:07:42;;;;;;;0.65;0.65;;;4.20;99.90;;;;;;4972934;28;20124;-78
2024/01/27 00:10:08;;;;;;;2.75;2.65;;;4.70;99.90;;;;;;4990546;28;20033;-78
2024/01/27 00:12:34;;;;;;;0.60;0.60;;;4.00;99.90;;;;;;5023704;28;20411;-78
2024/01/27 00:15:01;;;;;;;0.60;0.60;;;4.20;99.90;;;;;;4987579;28;20037;-78
2024/01/27 00:17:27;;;;;;;1.02;1.02;;;4.00;99.90;;;;;;4988922;28;20045;-79
2024/01/27 00:19:54;;;;;;;0.52;0.52;;;4.10;99.90;;;;;;5006156;28;20037;-78
2024/01/27 00:22:22;;;;;;;0.65;0.65;;;4.30;99.90;;;;;;5008004;28;20310;-78
2024/01/27 00:24:47;;;;;;;0.63;0.63;;;3.90;99.90;;;;;;4986368;28;20041;-78
2024/01/27 00:27:13;;;;;;;0.70;0.70;;;5.00;99.90;;;;;;4973662;28;20045;-78
2024/01/27 00:29:40;;;;;;;;;;;4.70;99.90;;;;;;4992582;28;20083;-78
2024/01/27 00:32:12;;;;;;;0.60;0.60;;;4.50;99.90;;;;;;4987775;28;19925;-78
2024/01/27 00:34:37;;;;;;;0.68;0.68;;;3.90;99.90;;;;;;4989581;28;20399;-78
2024/01/27 00:37:04;;;;;;;0.60;0.60;;;3.90;99.90;;;;;;5007131;28;20056;-78
2024/01/27 00:39:31;;;;;;;0.70;0.70;;;4.00;99.90;;;;;;5028563;28;20379;-78
2024/01/27 00:41:58;;;;;;;0.63;0.63;;;3.90;99.90;;;;;;5012105;28;20052;-78
2024/01/27 00:44:24;;;;;;;5.93;1.08;;;3.90;99.90;;;;;;4980988;28;20134;-84
2024/01/27 00:46:50;;;;;;;0.73;0.73;;;3.40;99.90;;;;;;4997179;28;20154;-83
2024/01/27 00:49:19;;;;;;;0.57;0.57;;;4.00;99.90;;;;;;5011554;28;20091;-84
2024/01/27 00:51:56;;;;;;;0.65;0.65;;;4.20;99.90;;;;;;5011405;28;20041;-85
2024/01/27 00:54:22;;;;;;;0.50;0.50;;;3.90;99.90;;;;;;5028681;28;20372;-85
2024/01/27 00:56:54;;;;;;;0.60;0.60;;;3.80;99.90;;;;;;5012434;28;20056;-85
2024/01/27 00:59:22;;;;;;;0.98;0.98;;;3.80;99.90;;;;;;5011730;28;20124;-84
2024/01/27 01:01:49;;;;;;;0.60;0.60;;;4.00;99.90;;;;;;5030160;28;20124;-84
2024/01/27 01:04:15;;;;;;;0.90;0.90;;;4.00;99.90;;;;;;4982491;28;20048;-84
2024/01/27 01:06:40;;;;;;;1.08;1.02;;;4.80;99.90;;;;;;5008553;28;20042;-85
2024/01/27 01:09:06;;;;;;;0.60;0.60;;;3.80;99.90;;;;;;5031919;28;20511;-84
2024/01/27 01:11:32;;;;;;;0.60;0.60;;;4.00;99.90;;;;;;5012457;28;20037;-83
2024/01/27 01:13:59;;;;;;;0.80;0.80;;;3.80;99.90;;;;;;5005677;28;20047;-84
2024/01/27 01:16:25;;;;;;;0.70;0.70;;;3.80;99.90;;;;;;5027934;28;20533;-84
2024/01/27 01:18:50;;;;;;;0.80;0.80;;;4.40;99.90;;;;;;4995503;28;20037;-84
2024/01/27 01:21:16;;;;;;;0.65;0.65;;;4.10;99.90;;;;;;5011831;28;20049;-85
2024/01/27 01:23:42;;;;;;;0.70;0.70;;;4.20;99.90;;;;;;5012795;28;20072;-84
2024/01/27 01:26:08;;;;;;;0.60;0.60;;;4.10;99.90;;;;;;4994361;28;20088;-83
2024/01/27 01:28:34;;;;;;;0.60;0.60;;;4.20;99.90;;;;;;4992298;28;20037;-83
2024/01/27 01:30:59;;;;;;;0.75;0.75;;;5.30;99.90;;;;;;4995191;28;20040;-83
2024/01/27 01:33:25;;;;;;;0.60;0.60;;;5.30;99.90;;;;;;4996084;28;20064;-84
2024/01/27 01:35:51;;;;;;;2.90;2.80;;;3.90;99.90;;;;;;4998003;28;20047;-84
2024/01/27 01:38:16;;;;;;;0.65;0.65;;;3.90;99.90;;;;;;4995097;28;20137;-84
2024/01/27 01:40:42;;;;;;;0.80;0.80;;;4.30;99.90;;;;;;5014074;28;20037;-84
2024/01/27 01:43:12;;;;;;;0.60;0.60;;;3.90;99.90;;;;;;5011223;28;20040;-85
2024/01/27 01:45:37;;;;;;;1.15;1.15;;;4.80;99.90;;;;;;5016743;28;20041;-85
2024/01/27 01:48:04;;;;;;;0.50;0.50;;;3.80;99.90;;;;;;5030614;28;20099;-85
2024/01/27 01:50:29;;;;;;;;;;;4.00;99.90;;;;;;5012211;28;20146;-84
2024/01/27 01:52:59;;;;;;;0.40;0.40;;;3.70;99.90;;;;;;5029475;28;19925;-80
2024/01/27 01:55:25;;;;;;;2.50;2.35;;;3.80;99.90;;;;;;4996555;28;20100;-79
2024/01/27 01:57:51;;;;;;;0.50;0.50;;;3.90;99.90;;;;;;4981493;28;20546;-79
2024/01/27 02:00:17;;;;;;;0.70;0.70;;;4.00;99.90;;;;;;4996263;28;20041;-79
2024/01/27 02:02:47;;;;;;;0.57;0.57;;;3.90;99.90;;;;;;5008438;28;20038;-79
2024/01/27 02:05:14;;;;;;;1.45;1.35;;;3.90;99.90;;;;;;4979609;28;20073;-79
2024/01/27 02:07:40;;;;;;;0.70;0.70;;;4.00;99.90;;;;;;4990802;28;20046;-79
2024/01/27 02:10:13;;;;;;;0.55;0.55;;;4.10;99.90;;;;;;4997437;28;20041;-78
2024/01/27 02:12:40;;;;;;;0.50;0.50;;;4.00;99.90;;;;;;4991543;28;20523;-78
2024/01/27 02:15:10;;;;;;;0.70;0.70;;;3.90;99.90;;;;;;4995319;28;20040;-78
2024/01/27 02:17:36;;;;;;;0.50;0.50;;;4.00;99.90;;;;;;5009859;28;20506;-78
2024/01/27 02:20:06;;;;;;;1.10;1.10;;;4.10;99.90;;;;;;4995087;28;20076;-79
2024/01/27 02:22:33;;;;;;;0.50;0.50;;;3.80;99.90;;;;;;5010293;28;20471;-78
2024/01/27 02:24:59;;;;;;;0.80;0.80;;;4.40;99.90;;;;;;5029183;28;21650;-77
2024/01/27 02:27:25;;;;;;;0.63;0.63;;;4.40;99.90;;;;;;5026663;28;20124;-79
2024/01/27 02:29:50;;;;;;;0.65;0.65;;;4.20;99.90;;;;;;5011720;28;20049;-79
2024/01/27 02:32:17;;;;;;;0.60;0.60;;;;;;;;;;4993522;28;20408;-77
2024/01/27 02:34:43;;;;;;;0.70;0.70;;;3.40;99.90;;;;;;5011829;28;20545;-78
2024/01/27 02:37:09;;;;;;;0.70;0.70;;;3.80;99.90;;;;;;5011822;28;20045;-79
2024/01/27 02:39:35;;;;;;;0.60;0.60;;;3.30;99.90;;;;;;5011726;28;20137;-79
2024/01/27 02:42:01;;;;;;;0.70;0.70;;;3.90;99.90;;;;;;5012871;28;20407;-78
2024/01/27 02:44:27;;;;;;;0.60;0.60;;;3.20;99.90;;;;;;4993766;28;20034;-79
2024/01/27 02:46:52;;;;;;;0.60;0.60;;;3.80;99.90;;;;;;5010085;28;20061;-79
2024/01/27 02:49:19;;;;;;;0.60;0.60;;;4.00;99.90;;;;;;4995538;28;20040;-79
2024/01/27 02:51:51;;;;;;;0.60;0.60;;;3.00;99.90;;;;;;5016309;28;20049;-79
2024/01/27 02:54:16;;;;;;;0.60;0.60;;;3.00;99.90;;;;;;5027539;28;20103;-79
2024/01/27 02:56:42;;;;;;;0.68;0.68;;;3.90;99.90;;;;;;4992272;28;20041;-79
2024/01/27 02:59:08;;;;;;;0.82;0.82;;;3.70;99.90;;;;;;5009604;28;20037;-79
2024/01/27 03:01:34;;;;;;;0.75;0.75;;;3.60;99.90;;;;;;5008729;28;20046;-79
2024/01/27 03:03:59;;;;;;;0.93;0.93;;;3.80;99.90;;;;;;5008385;28;20048;-79
2024/01/27 03:06:25;;;;;;;0.68;0.68;;;3.10;99.90;;;;;;5010350;28;20052;-78
2024/01/27 03:08:51;;;;;;;0.57;0.57;;;3.10;99.90;;;;;;4983140;28;20048;-78
2024/01/27 03:11:17;;;;;;;0.93;0.93;;;3.90;99.90;;;;;;4979179;28;20033;-78
2024/01/27 03:13:45;;;;;;;0.65;0.65;;;3.00;99.90;;;;;;5014481;28;20116;-78
2024/01/27 03:16:11;;;;;;;0.65;0.65;;;3.00;99.90;;;;;;5015918;28;20049;-78
2024/01/27 03:18:37;;;;;;;;;;;3.00;99.90;;;;;;5013202;28;20042;-79
2024/01/27 03:21:03;;;;;;;0.60;0.60;;;4.00;99.90;;;;;;5015201;28;19988;-78
2024/01/27 03:23:30;;;;;;;0.60;0.60;;;3.00;99.90;;;;;;4995991;28;20072;-79
2024/01/27 03:25:56;;;;;;;0.65;0.65;;;3.00;99.90;;;;;;4998879;28;20041;-78
2024/01/27 03:28:21;;;;;;;0.60;0.60;;;3.30;99.90;;;;;;4997569;28;20124;-78
2024/01/27 03:30:47;;;;;;;0.50;0.50;;;3.80;99.90;;;;;;5012679;28;20380;-78
2024/01/27 03:33:13;;;;;;;0.80;0.80;;;3.00;99.90;;;;;;4998509;28;20050;-78
2024/01/27 03:35:42;;;;;;;0.60;0.60;;;3.00;99.90;;;;;;5015151;28;20045;-78
2024/01/27 03:38:07;;;;;;;0.60;0.60;;;2.90;99.90;;;;;;4997324;28;20535;-78
2024/01/27 03:40:35;;;;;;;0.60;0.60;;;2.90;99.90;;;;;;5015700;28;20095;-78
2024/01/27 03:43:00;;;;;;;0.60;0.60;;;3.00;99.90;;;;;;4997751;28;20052;-77
2024/01/27 03:45:26;;;;;;;0.60;0.60;;;4.20;99.90;;;;;;4982200;28;20033;-77
2024/01/27 03:47:52;;;;;;;0.65;0.65;;;3.00;99.90;;;;;;5008125;28;20117;-78
2024/01/27 03:50:17;;;;;;;0.93;0.93;;;3.20;99.90;;;;;;4982102;28;20072;-77
2024/01/27 03:52:45;;;;;;;0.70;0.70;;;4.20;99.90;;;;;;4979618;28;20045;-77
2024/01/27 03:55:11;;;;;;;0.70;0.70;;;3.20;99.90;;;;;;5030496;28;20030;-78
2024/01/27 03:57:37;;;;;;;0.60;0.60;;;3.30;99.90;;;;;;4997715;28;20041;-78
2024/01/27 04:00:04;;;;;;;0.60;0.60;;;3.30;99.90;;;;;;5012476;28;20128;-79
2024/01/27 04:02:35;;;;;;;0.90;0.90;;;3.40;99.90;;;;;;4998616;28;20068;-78
2024/01/27 04:05:07;;;;;;;0.50;0.50;;;3.50;99.90;;;;;;4979567;28;20179;-78
2024/01/27 04:07:33;;;;;;;0.50;0.50;;;3.60;99.90;;;;;;4998149;28;20026;-79
2024/01/27 04:09:58;;;;;;;0.65;0.65;;;3.70;99.90;;;;;;4996907;28;20052;-78
2024/01/27 04:12:25;;;;;;;0.90;0.90;;;3.70;99.90;;;;;;5010880;28;20128;-77
2024/01/27 04:14:51;;;;;;;0.63;0.63;;;3.70;99.90;;;;;;4990848;28;20045;-77
2024/01/27 04:17:16;;;;;;;0.60;0.60;;;4.70;99.90;;;;;;5011988;28;20968;-78
2024/01/27 04:19:42;;;;;;;0.55;0.55;;;3.60;99.90;;;;;;4996714;28;20045;-77
2024/01/27 04:22:08;;;;;;;0.60;0.60;;;3.50;99.90;;;;;;4989509;28;20041;-78
2024/01/27 04:24:33;;;;;;;0.45;0.45;;;3.40;99.90;;;;;;4974086;28;20037;-77
2024/01/27 04:27:02;;;;;;;0.60;0.60;;;4.30;99.90;;;;;;5000272;28;20419;-77
2024/01/27 04:29:29;;;;;;;0.57;0.57;;;3.20;99.90;;;;;;5010278;28;20037;-77
2024/01/27 04:31:55;;;;;;;0.55;0.55;;;3.10;99.90;;;;;;4996109;28;20056;-78
2024/01/27 04:34:20;;;;;;;0.55;0.55;;;3.10;99.90;;;;;;4994591;28;20052;-77
2024/01/27 04:36:46;;;;;;;0.65;0.65;;;3.40;99.90;;;;;;5012915;28;20045;-79
2024/01/27 04:39:13;;;;;;;0.70;0.70;;;3.00;99.90;;;;;;5010889;28;20064;-77
2024/01/27 04:41:43;;;;;;;0.60;0.60;;;2.40;99.90;;;;;;4998289;28;20041;-77
2024/01/27 04:44:09;;;;;;;0.60;0.60;;;3.30;99.90;;;;;;5010869;28;20049;-78
2024/01/27 04:46:35;;;;;;;1.52;1.42;;;3.10;99.90;;;;;;5029117;28;20415;-77
2024/01/27 04:49:01;;;;;;;0.93;0.93;;;2.90;99.90;;;;;;5011875;28;20037;-79
2024/01/27 04:51:26;;;;;;;0.80;0.80;;;4.20;99.90;;;;;;5012170;28;20141;-78
2024/01/27 04:53:53;;;;;;;0.60;0.60;;;2.80;99.90;;;;;;4996658;28;20462;-78
2024/01/27 04:56:18;;;;;;;0.60;0.60;;;3.70;99.90;;;;;;4995819;28;20175;-77
2024/01/27 04:58:44;;;;;;;0.63;0.63;;;2.40;99.90;;;;;;4994195;28;20072;-78
2024/01/27 05:01:11;;;;;;;0.68;0.68;;;4.50;99.90;;;;;;5012786;28;20121;-79
2024/01/27 05:03:36;;;;;;;0.70;0.70;;;3.00;99.90;;;;;;4998985;28;20477;-77
2024/01/27 05:06:07;;;;;;;0.60;0.60;;;2.80;99.90;;;;;;5009055;28;20045;-78
2024/01/27 05:08:34;;;;;;;1.15;1.08;;;2.80;99.90;;;;;;5011763;28;20760;-78
2024/01/27 05:11:00;;;;;;;0.60;0.60;;;3.80;99.90;;;;;;5010856;28;20099;-79
2024/01/27 05:13:25;;;;;;;0.73;0.73;;;2.70;99.90;;;;;;5008373;28;20041;-77
2024/01/27 05:15:51;;;;;;;0.68;0.68;;;2.70;99.90;;;;;;5011508;28;20033;-78
2024/01/27 05:18:17;;;;;;;0.60;0.60;;;3.40;99.90;;;;;;4995530;28;20129;-78
2024/01/27 05:20:45;;;;;;;0.70;0.70;;;2.80;99.90;;;;;;4996650;28;20045;-78
2024/01/27 05:23:11;;;;;;;0.93;0.93;;;2.80;99.90;;;;;;5017684;28;20506;-77
2024/01/27 05:25:39;;;;;;;0.60;0.60;;;3.00;99.90;;;;;;5021386;28;20049;-83
2024/01/27 05:28:06;;;;;;;0.60;0.60;;;2.50;99.90;;;;;;5023493;28;20041;-83
2024/01/27 05:30:32;;;;;;;0.65;0.65;;;2.90;99.90;;;;;;5010913;28;20057;-80
2024/01/27 05:32:57;;;;;;;0.68;0.68;;;2.80;99.90;;;;;;4997131;28;20045;-84
2024/01/27 05:35:23;;;;;;;0.60;0.60;;;2.80;99.90;;;;;;5010062;28;20041;-84
2024/01/27 05:37:50;;;;;;;0.60;0.60;;;3.30;99.90;;;;;;4979304;28;20131;-84
2024/01/27 05:40:18;;;;;;;1.10;1.10;;;2.70;99.90;;;;;;5031263;28;20048;-85
2024/01/27 05:42:50;;;;;;;0.60;0.60;;;2.70;99.90;;;;;;4998332;28;20122;-84
2024/01/27 05:45:16;;;;;;;0.65;0.65;;;2.60;99.90;;;;;;4980761;28;20037;-86
2024/01/27 05:47:41;;;;;;;0.93;0.93;;;3.70;99.90;;;;;;4998787;28;20132;-85
2024/01/27 05:50:14;;;;;;;0.60;0.60;;;2.60;99.90;;;;;;4995676;28;20060;-85
2024/01/27 05:52:40;;;;;;;0.60;0.60;;;2.60;99.90;;;;;;4996268;28;20380;-84
2024/01/27 05:55:06;;;;;;;0.70;0.70;;;2.60;99.90;;;;;;4999571;28;20068;-84
2024/01/27 05:57:32;;;;;;;0.60;0.60;;;2.50;99.90;;;;;;5008013;28;20120;-84
2024/01/27 05:59:58;;;;;;;0.70;0.70;;;2.50;99.90;;;;;;5007973;28;20117;-84
2024/01/27 06:02:24;;;;;;;0.60;0.60;;;2.40;99.90;;;;;;5010479;28;20495;-84
2024/01/27 06:04:49;;;;;;;0.85;0.85;;;2.40;99.90;;;;;;4980993;28;20045;-84
2024/01/27 06:07:15;;;;;;;0.70;0.70;;;2.40;99.90;;;;;;4980742;28;20045;-84
2024/01/27 06:09:40;;;;;;;0.80;0.80;;;2.40;99.90;;;;;;4980290;28;20040;-84
2024/01/27 06:12:06;;;;;;;0.60;0.60;;;2.40;99.90;;;;;;5008597;28;20073;-83
2024/01/27 06:14:32;;;;;;;0.60;0.60;;;2.40;99.90;;;;;;5013580;28;20499;-83
2024/01/27 06:17:01;;;;;;;0.60;0.60;;;2.40;99.90;;;;;;5009716;28;20037;-83
2024/01/27 06:19:26;;;;;;;0.70;0.70;;;2.30;99.90;;;;;;5010590;28;20163;-82
2024/01/27 06:21:53;;;;;;;;;;;3.40;99.90;;;;;;5012109;28;20479;-82
2024/01/27 06:24:19;;;;;;;1.20;1.20;;;2.10;99.90;;;;;;5011002;28;19917;-82
2024/01/27 06:26:45;;;;;;;0.75;0.75;;;3.20;99.90;;;;;;5011506;28;20060;-83
2024/01/27 06:29:12;;;;;;;;;;;2.30;99.90;;;;;;4974085;28;20034;-84
2024/01/27 06:31:37;;;;;;;1.13;1.13;;;2.40;99.90;;;;;;4996988;28;20027;-83
2024/01/27 06:34:03;;;;;;;0.60;0.60;;;2.30;99.90;;;;;;5025695;28;20049;-83
2024/01/27 06:36:29;;;;;;;0.65;0.65;;;2.80;99.90;;;;;;4995825;28;20157;-78
2024/01/27 06:38:54;;;;;;;0.60;0.60;;;2.30;99.90;;;;;;5010741;28;20037;-77
2024/01/27 06:41:20;;;;;;;0.65;0.65;;;2.30;99.90;;;;;;4995830;28;20175;-77
2024/01/27 06:43:46;;;;;;;0.77;0.77;;;2.10;99.90;;;;;;4992810;28;20073;-78
2024/01/27 06:46:12;;;;;;;0.68;0.68;;;2.30;99.90;;;;;;4994333;28;20045;-79
2024/01/27 06:48:38;;;;;;;0.50;0.50;;;2.30;99.90;;;;;;5016362;28;20063;-78
2024/01/27 06:51:05;;;;;;;0.60;0.60;;;2.20;99.90;;;;;;5014589;28;20043;-79
2024/01/27 06:53:31;;;;;;;0.60;0.60;;;2.20;99.90;;;;;;5016545;28;20048;-78
2024/01/27 06:55:58;;;;;;;0.60;0.60;;;2.00;99.90;;;;;;4965658;28;20046;-78
2024/01/27 06:58:23;;;;;;;0.70;0.70;;;2.30;99.90;;;;;;5026572;28;20045;-78
2024/01/27 07:00:49;;;;;;;0.60;0.60;;;2.30;99.90;;;;;;5017860;28;20257;-78
2024/01/27 07:03:15;;;;;;;0.70;0.70;;;2.70;99.90;;;;;;4978036;28;20487;-78
2024/01/27 07:05:41;;;;;;;0.77;0.77;;;2.30;99.90;;;;;;4999392;28;20042;-77
2024/01/27 07:08:07;;;;;;;0.70;0.70;;;3.50;99.90;;;;;;4999766;28;20045;-78
2024/01/27 07:10:34;;;;;;;0.70;0.70;;;3.30;99.90;;;;;;5026596;28;20069;-78
2024/01/27 07:13:00;;;;;;;0.60;0.60;;;1.50;99.90;;;;;;5026514;28;20091;-79
2024/01/27 07:15:27;;;;;;;0.60;0.60;;;3.20;99.90;;;;;;5011965;28;20037;-77
2024/01/27 07:17:53;;;;;;;0.70;0.70;;;2.30;99.90;;;;;;4994546;28;20056;-78
2024/01/27 07:20:20;;;;;;;0.68;0.68;;;3.20;99.90;;;;;;4998575;28;20067;-78
2024/01/27 07:22:47;;;;;;;0.80;0.80;;;1.90;99.90;;;;;;4993032;28;20050;-78
2024/01/27 07:25:13;;;;;;;1.10;1.10;;;2.20;99.90;;;;;;5025266;28;20091;-77
2024/01/27 07:27:39;;;;;;;0.70;0.70;;;2.20;99.90;;;;;;5011456;28;20068;-77
2024/01/27 07:30:06;;;;;;;;;;;2.20;99.90;;;;;;4996646;28;20037;-78
2024/01/27 07:32:32;;;;;;;0.60;0.60;;;2.20;99.90;;;;;;4994216;28;19929;-79
2024/01/27 07:34:58;;;;;;;0.70;0.70;;;3.50;99.90;;;;;;4993440;28;20131;-80
2024/01/27 07:37:24;;;;;;;;;;;2.20;99.90;;;;;;5015225;28;20125;-81
2024/01/27 07:39:50;;;;;;;0.70;0.70;;;2.10;99.90;;;;;;5010839;28;19972;-81
2024/01/27 07:42:15;;;;;;;0.75;0.75;;;2.20;99.90;;;;;;4978012;28;20041;-80
2024/01/27 07:44:43;;;;;;;0.70;0.70;;;2.30;99.90;;;;;;4997477;28;20383;-81
2024/01/27 07:47:08;;;;;;;0.60;0.60;;;3.40;99.90;;;;;;5031645;28;20049;-80
2024/01/27 07:49:34;;;;;;;0.85;0.82;;;2.30;99.90;;;;;;4979771;28;20030;-81
2024/01/27 07:52:00;;;;;;;0.73;0.73;;;2.20;99.90;;;;;;4991377;28;20065;-80
2024/01/27 07:54:26;;;;;;;0.70;0.70;;;2.10;99.90;;;;;;4985714;28;20114;-80
2024/01/27 07:56:52;;;;;;;0.98;0.98;;;3.40;99.90;;;;;;4993092;28;20132;-79
2024/01/27 07:59:18;;;;;;;0.70;0.70;;;2.40;99.90;;;;;;5006922;28;20120;-78
2024/01/27 08:01:44;;;;;;;0.82;0.82;;;2.40;99.90;;;;;;4989999;28;20715;-80
2024/01/27 08:04:10;;;;;;;1.30;1.30;;;2.50;99.90;;;;;;4987442;28;20069;-80
2024/01/27 08:06:47;;;;;;;0.60;0.60;;;2.50;99.90;;;;;;5025188;28;20127;-80
2024/01/27 08:09:13;;;;;;;;;;;4.10;99.90;;;;;;5020927;28;20570;-80
2024/01/27 08:11:38;;;;;;;0.70;0.70;;;2.60;99.90;;;;;;5009176;28;19982;-79
2024/01/27 08:14:04;;;;;;;0.60;0.60;;;2.70;99.90;;;;;;5009452;28;20121;-78
2024/01/27 08:16:30;;;;;;;0.70;0.70;;;2.70;99.90;;;;;;5007687;28;20119;-81
2024/01/27 08:18:56;;;;;;;1.02;1.02;;;2.70;99.90;;;;;;5007335;28;20081;-81
2024/01/27 08:21:22;;;;;;;0.82;0.82;;;4.30;99.90;;;;;;4989580;28;20076;-80
2024/01/27 08:23:48;;;;;;;;;;;2.80;99.90;;;;;;5007885;28;20067;-81
2024/01/27 08:26:14;;;;;;;1.52;1.42;;;2.80;99.90;;;;;;5007568;28;20382;-78
2024/01/27 08:28:40;;;;;;;0.60;0.60;;;2.90;99.90;;;;;;5008452;28;20045;-75
2024/01/27 08:31:06;;;;;;;0.57;0.57;;;4.10;99.90;;;;;;5008936;28;20399;-76
2024/01/27 08:33:32;;;;;;;0.73;0.73;;;3.00;99.90;;;;;;5004352;28;20050;-77
2024/01/27 08:35:58;;;;;;;;;;;3.00;99.90;;;;;;4991050;28;20050;-76
2024/01/27 08:38:23;;;;;;;0.70;0.70;;;3.10;99.90;;;;;;4976504;28;19975;-76
2024/01/27 08:40:49;;;;;;;0.68;0.68;;;3.20;99.90;;;;;;4992369;28;20046;-78
2024/01/27 08:43:15;;;;;;;0.65;0.65;;;3.20;99.90;;;;;;4985585;28;20076;-78
2024/01/27 08:45:41;;;;;;;0.60;0.60;;;3.30;99.90;;;;;;4992628;28;20057;-78
2024/01/27 08:48:08;;;;;;;0.70;0.70;;;3.30;99.90;;;;;;4992277;28;20045;-77
2024/01/27 08:50:39;;;;;;;0.60;0.60;;;3.30;99.90;;;;;;5008895;28;20119;-77
2024/01/27 08:53:05;;;;;;;1.60;1.50;;;3.30;99.90;;;;;;5006861;28;20034;-78
2024/01/27 08:55:31;;;;;;;0.88;0.88;;;4.10;99.90;;;;;;5013554;28;20419;-79
2024/01/27 08:57:57;;;;;;;0.70;0.70;;;3.40;99.90;;;;;;5008708;28;20046;-78
2024/01/27 09:00:23;;;;;;;2.80;0.70;;;3.50;99.90;;;;;;4985596;28;20064;-78
2024/01/27 09:02:49;;;;;;;0.80;0.80;;;3.50;99.90;;;;;;4991671;28;21172;-78
2024/01/27 09:05:14;;;;;;;0.90;0.90;;;3.50;99.90;;;;;;4990273;28;20121;-78
2024/01/27 09:07:40;;;;;;;0.63;0.63;;;3.60;99.90;;;;;;5007658;28;20503;-78
2024/01/27 09:10:07;;;;;;;2.38;2.28;;;3.60;99.90;;;;;;5011456;28;20071;-77
2024/01/27 09:12:33;;;;;;;0.68;0.68;;;3.70;99.90;;;;;;5009236;28;20041;-78
2024/01/27 09:15:07;;;;;;;0.50;0.50;;;3.80;99.90;;;;;;5023733;28;20045;-77
2024/01/27 09:17:33;;;;;;;0.60;0.60;;;4.00;99.90;;;;;;5007645;28;20042;-77
2024/01/27 09:20:05;;;;;;;0.70;0.70;;;3.90;99.90;;;;;;5007414;28;20120;-78
2024/01/27 09:22:37;;;;;;;0.60;0.60;;;3.90;99.90;;;;;;4979068;28;20049;-78
2024/01/27 09:25:04;;;;;;;0.70;0.70;;;4.00;99.90;;;;;;4990298;28;20038;-78
2024/01/27 09:27:38;;;;;;;0.52;0.52;;;4.10;99.90;;;;;;5008147;28;20049;-79
2024/01/27 09:30:04;;;;;;;0.50;0.50;;;3.80;99.90;;;;;;4974278;28;20095;-77
2024/01/27 09:32:30;;;;;;;1.15;1.00;;;4.20;99.90;;;;;;4988334;28;20518;-77
2024/01/27 09:35:00;;;;;;;0.60;0.60;;;4.30;99.90;;;;;;4986921;28;20157;-78
2024/01/27 09:37:25;;;;;;;2.38;2.05;;;4.30;99.90;;;;;;4968476;28;20608;-77
2024/01/27 09:39:51;;;;;;;1.90;1.80;;;4.40;99.90;;;;;;4970167;28;20412;-77
2024/01/27 09:42:21;;;;;;;0.63;0.63;;;4.50;99.90;;;;;;4986303;28;20138;-76
2024/01/27 09:44:49;;;;;;;0.50;0.50;;;4.50;99.90;;;;;;4978004;28;20093;-76
2024/01/27 09:47:19;;;;;;;0.90;0.90;;;4.60;99.90;;;;;;4987024;28;20049;-76
2024/01/27 09:49:46;;;;;;;0.60;0.60;;;4.60;99.90;;;;;;4970602;28;20492;-76
2024/01/27 09:52:12;;;;;;;0.65;0.65;;;4.70;99.90;;;;;;4985086;28;20105;-77
2024/01/27 09:54:40;;;;;;;;;;;4.70;99.90;;;;;;4992401;28;20125;-76
2024/01/27 09:57:05;;;;;;;0.80;0.80;;;4.90;99.90;;;;;;4989093;28;19928;-77
2024/01/27 09:59:33;;;;;;;1.17;1.17;;;5.80;99.90;;;;;;4988541;28;20038;-76
2024/01/27 10:02:02;;;;;;;0.60;0.60;;;5.00;99.90;;;;;;4987630;28;20065;-76
2024/01/27 10:04:30;;;;;;;0.70;0.70;;;5.00;99.90;;;;;;4985121;28;20045;-77
2024/01/27 10:06:58;;;;;;;0.70;0.70;;;5.10;99.90;;;;;;4988372;28;20049;-76
2024/01/27 10:09:24;;;;;;;0.75;0.75;;;5.20;99.90;;;;;;4971987;28;20105;-78
2024/01/27 10:11:50;;;;;;;0.63;0.63;;;5.20;99.90;;;;;;4969805;28;20038;-78
2024/01/27 10:14:16;;;;;;;0.60;0.60;;;5.20;99.90;;;;;;5002088;28;20116;-77
2024/01/27 10:16:45;;;;;;;0.90;0.90;;;5.30;99.90;;;;;;4953736;28;20073;-77
2024/01/27 10:19:17;;;;;;;0.60;0.60;;;5.40;99.90;;;;;;4967219;28;20049;-76
2024/01/27 10:21:44;;;;;;;0.60;0.60;;;5.40;99.90;;;;;;5001307;28;20050;-77
2024/01/27 10:24:10;;;;;;;1.02;1.02;;;5.40;99.90;;;;;;4988703;28;20536;-77
2024/01/27 10:26:36;;;;;;;1.10;1.10;;;5.50;99.90;;;;;;4999664;28;20135;-77
2024/01/27 10:29:02;;;;;;;0.98;0.77;;;5.60;99.90;;;;;;4955693;28;20121;-77
2024/01/27 10:31:28;;;;;;;;;;;5.60;99.90;;;;;;4987712;28;20038;-77
2024/01/27 10:33:56;;;;;;;3.85;1.13;;;5.70;99.90;;;;;;4990116;28;19925;-76
2024/01/27 10:36:23;;;;;;;0.95;0.95;;;5.80;99.90;;;;;;5006904;28;20037;-76
2024/01/27 10:38:48;;;;;;;0.55;0.55;;;5.90;99.90;;;;;;5006347;28;20104;-76
2024/01/27 10:41:27;;;;;;;0.60;0.60;;;5.90;99.90;;;;;;5000562;28;20058;-77
2024/01/27 10:43:54;;;;;;;0.60;0.60;;;6.00;99.90;;;;;;5003569;28;20561;-76
2024/01/27 10:46:22;;;;;;;0.50;0.50;;;6.10;99.90;;;;;;4991025;28;20081;-76
2024/01/27 10:48:53;;;;;;;0.70;0.70;;;6.10;99.90;;;;;;4991390;28;20074;-76
2024/01/27 10:51:36;;;;;;;0.80;0.80;;;6.10;99.90;;;;;;4990368;28;20038;-77
2024/01/27 10:54:03;;;;;;;0.52;0.52;;;6.20;99.90;;;;;;4991158;28;20046;-76
2024/01/27 10:56:35;;;;;;;0.50;0.50;;;6.20;99.90;;;;;;5004552;28;20092;-76
2024/01/27 10:59:04;;;;;;;0.50;0.50;;;6.30;99.90;;;;;;5007481;28;20050;-77
2024/01/27 11:01:34;;;;;;;4.65;2.45;;;6.30;99.90;;;;;;4989688;28;20060;-77
2024/01/27 11:04:03;;;;;;;0.73;0.73;;;6.30;99.90;;;;;;4989614;28;20562;-77
2024/01/27 11:06:31;;;;;;;0.60;0.60;;;6.40;99.90;;;;;;4987425;28;20056;-77
2024/01/27 11:08:57;;;;;;;0.60;0.60;;;6.40;99.90;;;;;;5008664;28;20050;-76
2024/01/27 11:11:23;;;;;;;0.75;0.75;;;6.40;99.90;;;;;;5005086;28;20049;-76
2024/01/27 11:13:50;;;;;;;0.80;0.80;;;6.50;99.90;;;;;;4957688;28;20132;-76
2024/01/27 11:16:18;;;;;;;0.65;0.65;;;6.50;99.90;;;;;;4991186;28;20048;-76
2024/01/27 11:18:45;;;;;;;12.32;1.75;;;6.60;99.90;;;;;;4987375;28;20088;-76
2024/01/27 11:21:15;;;;;;;0.68;0.68;;;6.60;99.90;;;;;;5005954;28;20056;-76
2024/01/27 11:23:42;;;;;;;0.60;0.60;;;7.40;99.90;;;;;;4977288;28;20092;-77
2024/01/27 11:26:10;;;;;;;0.40;0.40;;;6.70;99.90;;;;;;4989694;28;20121;-76
2024/01/27 11:28:37;;;;;;;1.48;1.35;;;6.70;99.90;;;;;;5015735;28;20042;-76
2024/01/27 11:31:04;;;;;;;1.02;1.00;;;6.80;99.90;;;;;;5004003;28;20048;-76
2024/01/27 11:33:30;;;;;;;2.78;2.67;;;6.80;99.90;;;;;;4991048;28;20508;-76
2024/01/27 11:36:10;;;;;;;0.60;0.60;;;6.90;99.90;;;;;;4978453;28;20092;-77
2024/01/27 11:38:42;;;;;;;0.50;0.50;;;7.00;99.90;;;;;;5012433;28;20125;-76
2024/01/27 11:41:09;;;;;;;0.63;0.63;;;7.10;99.90;;;;;;5009163;28;20077;-79
2024/01/27 11:43:35;;;;;;;0.73;0.70;;;7.10;99.90;;;;;;4978752;28;20042;-82
2024/01/27 11:46:01;;;;;;;0.50;0.50;;;7.20;99.90;;;;;;5013226;28;20121;-80
2024/01/27 11:48:42;;;;;;;0.50;0.50;;;7.20;99.90;;;;;;5009645;28;20042;-79
2024/01/27 11:51:19;;;;;;;0.45;0.45;;;7.40;99.90;;;;;;5011358;28;20167;-78
2024/01/27 11:53:49;;;;;;;1.77;1.38;;;7.40;99.90;;;;;;5014241;28;20034;-78
2024/01/27 11:56:15;;;;;;;3.30;1.13;;;7.50;99.90;;;;;;5009504;28;20042;-78
2024/01/27 11:58:49;;;;;;;0.60;0.60;;;7.60;99.90;;;;;;5011092;28;20521;-79
2024/01/27 12:01:21;;;;;;;0.60;0.60;;;7.60;99.90;;;;;;4995309;28;20044;-77
2024/01/27 12:03:48;;;;;;;0.50;0.50;;;7.70;99.90;;;;;;4996725;28;20074;-80
2024/01/27 12:06:15;;;;;;;1.10;1.00;;;7.70;99.90;;;;;;5009749;28;20058;-80
2024/01/27 12:08:46;;;;;;;0.50;0.50;;;7.80;99.90;;;;;;5014558;28;20053;-80
2024/01/27 12:11:14;;;;;;;0.70;0.70;;;7.90;99.90;;;;;;5012520;28;20511;-80
2024/01/27 12:13:44;;;;;;;0.45;0.45;;;8.00;99.90;;;;;;5005787;28;20405;-79
2024/01/27 12:16:13;;;;;;;0.32;0.32;;;8.10;99.90;;;;;;5011793;28;20442;-78
2024/01/27 12:19:00;;;;;;;0.40;0.40;;;8.10;99.90;;;;;;5011166;28;20046;-78
2024/01/27 12:21:25;;;;;;;0.60;0.60;;;8.20;99.90;;;;;;5010152;28;20050;-79
2024/01/27 12:24:12;;;;;;;0.52;0.52;;;8.10;99.90;;;;;;5009994;28;20034;-80
2024/01/27 12:26:48;;;;;;;0.50;0.50;;;8.20;99.90;;;;;;5012443;28;20050;-79
2024/01/27 12:29:23;;;;;;;0.38;0.38;;;8.30;99.90;;;;;;4995221;28;20053;-78
2024/01/27 12:31:54;;;;;;;0.85;0.85;;;8.30;99.90;;;;;;5015468;28;20116;-78
2024/01/27 12:34:50;;;;;;;0.82;0.82;;;8.20;99.90;;;;;;4995194;28;20049;-78
2024/01/27 12:37:16;;;;;;;0.40;0.40;;;8.30;99.90;;;;;;4963469;28;20050;-77
2024/01/27 12:39:45;;;;;;;;;;;8.20;99.90;;;;;;4998616;28;20493;-78
2024/01/27 12:42:12;;;;;;;0.50;0.50;;;8.20;99.90;;;;;;4992729;28;19917;-80
2024/01/27 12:44:38;;;;;;;0.50;0.50;;;8.20;99.90;;;;;;4995365;28;20531;-79
2024/01/27 12:47:05;;;;;;;1.15;1.15;;;8.40;99.90;;;;;;4992799;28;20042;-79
2024/01/27 12:49:31;;;;;;;;;;;8.30;99.90;;;;;;4957547;28;20097;-80
2024/01/27 12:51:57;;;;;;;0.50;0.50;;;8.30;99.90;;;;;;4973786;28;19953;-81
2024/01/27 12:54:23;;;;;;;0.90;0.90;;;8.40;99.90;;;;;;4978832;28;20068;-79
2024/01/27 12:56:49;;;;;;;1.40;1.10;;;8.50;99.90;;;;;;4959624;28;20404;-78
2024/01/27 12:59:15;;;;;;;0.40;0.40;;;8.60;99.90;;;;;;4994260;28;20164;-78